ADDS METAR Data INFO
IDs: Format: Raw Decoded Include TAF

Data at: 1146 UTC 23 Jun 2018

K4O4 231135Z AUTO 00000KT 10SM SCT050 SCT065 21/18 A2982 RMK AO2
K4O4 231115Z AUTO 00000KT 10SM CLR 21/18 A2983 RMK AO2
K4O4 231055Z AUTO 00000KT 10SM CLR 21/18 A2982 RMK AO2
K4O4 231035Z AUTO 00000KT 10SM CLR 21/18 A2982 RMK AO2
K4O4 231015Z AUTO 00000KT 10SM CLR 21/18 A2983 RMK AO2
K4O4 230955Z AUTO 00000KT 10SM CLR 21/18 A2983 RMK AO2
K4O4 230935Z AUTO 04007G14KT 003V063 10SM CLR 22/18 A2983 RMK AO2
K4O4 230915Z AUTO 02011G17KT 10SM SCT049 SCT060 22/17 A2983 RMK AO2
K4O4 230855Z AUTO 33019G24KT 10SM SCT030 SCT038 OVC048 23/17 A2987 RMK AO2
K4O4 230835Z AUTO 32014G17KT 10SM BKN027 BKN095 23/19 A2985 RMK AO2
K4O4 230815Z AUTO 00000KT 10SM CLR 24/21 A2981 RMK AO2
K4O4 230755Z AUTO 00000KT 10SM CLR 23/21 A2978 RMK AO2
K4O4 230735Z AUTO 00000KT 10SM SCT080 23/20 A2979 RMK AO2
K4O4 230715Z AUTO 00000KT 10SM CLR 23/20 A2976 RMK AO2
K4O4 230655Z AUTO 00000KT 10SM CLR 24/20 A2975 RMK AO2
K4O4 230635Z AUTO 00000KT 10SM CLR 24/20 A2976 RMK AO2
K4O4 230615Z AUTO 00000KT 10SM CLR 24/20 A2976 RMK AO2
K4O4 230555Z AUTO 11003KT 10SM CLR 24/20 A2976 RMK AO2
K4O4 230535Z AUTO 00000KT 10SM CLR 24/20 A2977 RMK AO2
K4O4 230515Z AUTO 00000KT 10SM CLR 24/20 A2977 RMK AO2
K4O4 230455Z AUTO 00000KT 10SM CLR 24/20 A2977 RMK AO2
K4O4 230435Z AUTO 00000KT 10SM CLR 24/20 A2977 RMK AO2
K4O4 230415Z AUTO 00000KT 10SM CLR 23/20 A2977 RMK AO2
K4O4 230355Z AUTO 00000KT 10SM CLR 23/20 A2978 RMK AO2
K4O4 230335Z AUTO 00000KT 10SM CLR 24/19 A2978 RMK AO2
K4O4 230315Z AUTO 00000KT 10SM CLR 23/19 A2978 RMK AO2
K4O4 230255Z AUTO 00000KT 10SM CLR 23/19 A2976 RMK AO2
K4O4 230235Z AUTO 00000KT 10SM CLR 25/19 A2974 RMK AO2
K4O4 230215Z AUTO 00000KT 10SM CLR 25/19 A2973 RMK AO2
K4O4 230155Z AUTO 00000KT 10SM CLR 26/18 A2974 RMK AO2
K4O4 230135Z AUTO 00000KT 10SM CLR 27/18 A2974 RMK AO2
K4O4 230115Z AUTO 00000KT 10SM CLR 28/18 A2974 RMK AO2
K4O4 230055Z AUTO 00000KT 10SM CLR 30/18 A2974 RMK AO2
K4O4 230035Z AUTO 00000KT 10SM CLR 31/18 A2974 RMK AO2
K4O4 230015Z AUTO 00000KT 10SM CLR 31/17 A2974 RMK AO2
K4O4 222355Z AUTO 00000KT 10SM CLR 32/16 A2975 RMK AO2
K4O4 222335Z AUTO 00000KT 10SM CLR 32/16 A2975 RMK AO2
K4O4 222315Z AUTO 00000KT 10SM CLR 32/16 A2975 RMK AO2
K4O4 222255Z AUTO 00000KT 10SM CLR 32/16 A2976 RMK AO2
K4O4 222235Z AUTO 00000KT 10SM CLR 31/16 A2977 RMK AO2
K4O4 222215Z AUTO 00000KT 10SM CLR 31/16 A2978 RMK AO2
K4O4 222155Z AUTO 00000KT 10SM CLR 32/15 A2979 RMK AO2
K4O4 222135Z AUTO 00000KT 10SM CLR 32/15 A2980 RMK AO2
K4O4 222115Z AUTO 25005KT 10SM CLR 33/15 A2980 RMK AO2
K4O4 222055Z AUTO 22005KT 10SM CLR 33/15 A2981 RMK AO2
K4O4 222035Z AUTO 00000KT 10SM CLR 33/16 A2981 RMK AO2
K4O4 222015Z AUTO 00000KT 10SM CLR 33/15 A2981 RMK AO2
K4O4 221955Z AUTO 00000KT 10SM CLR 32/16 A2981 RMK AO2
K4O4 221935Z AUTO 00000KT 10SM CLR 32/16 A2982 RMK AO2
K4O4 221915Z AUTO 00000KT 10SM CLR 31/16 A2982 RMK AO2
K4O4 221855Z AUTO 00000KT 10SM CLR 30/16 A2984 RMK AO2
K4O4 221835Z AUTO 00000KT 10SM CLR 29/18 A2984 RMK AO2
K4O4 221815Z AUTO 00000KT 10SM CLR 28/17 A2987 RMK AO2
K4O4 221755Z AUTO 02006KT 10SM CLR 27/20 A2984 RMK AO2
K4O4 221735Z AUTO 00000KT 10SM CLR 27/21 A2985 RMK AO2
K4O4 221715Z AUTO 00000KT 10SM SCT043 28/21 A2985 RMK AO2
K4O4 221655Z AUTO 00000KT 10SM CLR 28/22 A2985 RMK AO2
K4O4 221635Z AUTO 30007KT 10SM SCT026 28/22 A2987 RMK AO2
K4O4 221615Z AUTO 30009KT 10SM SCT023 SCT029 28/22 A2987 RMK AO2
K4O4 221555Z AUTO 28011G14KT 10SM SCT022 SCT027 28/22 A2987 RMK AO2
K4O4 221535Z AUTO 26009KT 10SM SCT023 SCT027 28/22 A2987 RMK AO2
K4O4 221515Z AUTO 25006KT 10SM SCT019 SCT026 28/22 A2986 RMK AO2
K4O4 221455Z AUTO 00000KT 10SM SCT015 28/22 A2985 RMK AO2
K4O4 221435Z AUTO 00000KT 10SM SCT015 27/22 A2985 RMK AO2
K4O4 221415Z AUTO 00000KT 10SM SCT015 27/22 A2986 RMK AO2
K4O4 221355Z AUTO 00000KT 10SM CLR 26/22 A2985 RMK AO2
K4O4 221335Z AUTO 00000KT 10SM CLR 25/22 A2985 RMK AO2
K4O4 221315Z AUTO 00000KT 10SM CLR 25/22 A2985 RMK AO2
K4O4 221255Z AUTO 00000KT 10SM SCT018 24/21 A2985 RMK AO2
K4O4 221235Z AUTO 00000KT 10SM BKN016 23/21 A2985 RMK AO2
K4O4 221215Z AUTO 00000KT 10SM SCT016 22/21 A2984 RMK AO2
K4O4 221155Z AUTO 00000KT 10SM CLR 21/20 A2983 RMK AO2
K4O4 221135Z AUTO 00000KT 5SM CLR 21/20 A2983 RMK AO2
K4O4 221115Z AUTO 00000KT 7SM CLR 21/20 A2982 RMK AO2
K4O4 221055Z AUTO 00000KT 7SM CLR 22/20 A2982 RMK AO2
K4O4 221035Z AUTO 00000KT 10SM CLR 22/21 A2981 RMK AO2
K4O4 221015Z AUTO 00000KT 7SM CLR 22/21 A2981 RMK AO2
K4O4 220955Z AUTO 00000KT 10SM CLR 22/21 A2981 RMK AO2
K4O4 220935Z AUTO 00000KT 10SM CLR 22/21 A2980 RMK AO2
K4O4 220915Z AUTO 00000KT 10SM CLR 22/21 A2980 RMK AO2
K4O4 220855Z AUTO 00000KT 10SM CLR 22/21 A2979 RMK AO2
K4O4 220835Z AUTO 00000KT 10SM CLR 22/20 A2980 RMK AO2
K4O4 220815Z AUTO 00000KT 10SM CLR 22/21 A2980 RMK AO2
K4O4 220755Z AUTO 00000KT 10SM CLR 22/20 A2981 RMK AO2
K4O4 220735Z AUTO 00000KT 10SM CLR 22/20 A2981 RMK AO2
K4O4 220715Z AUTO 00000KT 10SM CLR 22/21 A2981 RMK AO2
K4O4 220655Z AUTO 00000KT 10SM CLR 22/20 A2981 RMK AO2
K4O4 220635Z AUTO 00000KT 10SM CLR 22/21 A2981 RMK AO2
K4O4 220615Z AUTO 00000KT 10SM CLR 23/20 A2982 RMK AO2
K4O4 220555Z AUTO 00000KT 10SM CLR 23/21 A2982 RMK AO2
K4O4 220535Z AUTO 00000KT 10SM CLR 23/20 A2983 RMK AO2
K4O4 220515Z AUTO 00000KT 10SM CLR 22/20 A2984 RMK AO2
K4O4 220455Z AUTO 00000KT 10SM CLR 22/20 A2984 RMK AO2
K4O4 220440Z AUTO 00000KT 10SM CLR 22/20 A2984 RMK AO2
K4O4 220415Z AUTO 00000KT 10SM CLR 23/21 A2984 RMK AO2
K4O4 220355Z AUTO 00000KT 10SM CLR 23/20 A2984 RMK AO2
K4O4 220335Z AUTO 00000KT 10SM CLR 23/20 A2985 RMK AO2
K4O4 220315Z AUTO 00000KT 10SM CLR 23/18 A2985 RMK AO2
K4O4 220255Z AUTO 00000KT 10SM CLR 24/20 A2984 RMK AO2
K4O4 220235Z AUTO 00000KT 10SM CLR 24/20 A2985 RMK AO2
K4O4 220215Z AUTO 00000KT 10SM CLR 26/18 A2984 RMK AO2
K4O4 220155Z AUTO 00000KT 10SM CLR 27/20 A2984 RMK AO2
K4O4 220135Z AUTO 00000KT 10SM CLR 28/18 A2984 RMK AO2
K4O4 220115Z AUTO 00000KT 10SM CLR 28/18 A2984 RMK AO2
K4O4 220055Z AUTO 00000KT 10SM CLR 30/18 A2984 RMK AO2
K4O4 220035Z AUTO 25007KT 10SM CLR 31/17 A2984 RMK AO2
K4O4 220015Z AUTO 28006KT 10SM CLR 31/17 A2984 RMK AO2
K4O4 212355Z AUTO 27005KT 10SM CLR 32/17 A2984 RMK AO2